createdAt,value
2017-12-17T00:01:44.807Z,3.80
2017-12-17T00:04:12.984Z,3.50
2017-12-17T00:06:41.147Z,3.30
2017-12-17T00:09:09.321Z,3.40
2017-12-17T00:11:37.466Z,3.50
2017-12-17T00:14:06.386Z,3.80
2017-12-17T00:16:34.543Z,3.80
2017-12-17T00:19:02.668Z,3.90
2017-12-17T00:21:30.821Z,4.00
2017-12-17T00:23:59.750Z,3.70
2017-12-17T00:26:28.653Z,3.70
2017-12-17T00:28:56.802Z,3.60
2017-12-17T00:31:24.930Z,3.80
2017-12-17T00:33:53.068Z,3.80
2017-12-17T00:36:21.200Z,3.80
2017-12-17T00:38:49.360Z,3.60
2017-12-17T00:41:19.417Z,3.60
2017-12-17T00:43:47.628Z,3.50
2017-12-17T00:46:15.749Z,3.60
2017-12-17T00:48:43.912Z,3.60
2017-12-17T00:51:12.042Z,3.60
2017-12-17T00:53:40.932Z,3.70
2017-12-17T00:56:09.088Z,3.70
2017-12-17T00:58:37.229Z,3.50
2017-12-17T01:01:06.141Z,3.60
2017-12-17T01:03:34.263Z,3.60
2017-12-17T01:06:04.384Z,3.70
2017-12-17T01:08:32.524Z,3.80
2017-12-17T01:11:01.449Z,3.70
2017-12-17T01:13:29.580Z,3.70
2017-12-17T01:15:57.791Z,3.80
2017-12-17T01:18:25.914Z,3.80
2017-12-17T01:20:54.056Z,3.90
2017-12-17T01:23:22.186Z,4.00
2017-12-17T01:25:50.341Z,3.90
2017-12-17T01:28:19.237Z,4.00
2017-12-17T01:30:48.873Z,4.10
2017-12-17T01:33:17.417Z,4.00
2017-12-17T01:35:45.584Z,3.90
2017-12-17T01:38:13.728Z,4.10
2017-12-17T01:40:42.614Z,4.00
2017-12-17T01:43:10.802Z,4.00
2017-12-17T01:45:38.918Z,4.10
2017-12-17T01:48:07.820Z,4.30
2017-12-17T01:50:35.937Z,4.30
2017-12-17T01:53:04.862Z,3.90
2017-12-17T01:55:32.989Z,3.90
2017-12-17T01:58:01.923Z,3.80
2017-12-17T02:00:30.076Z,3.80
2017-12-17T02:02:59.003Z,3.80
2017-12-17T02:05:27.145Z,3.80
2017-12-17T02:07:56.043Z,4.00
2017-12-17T02:10:24.166Z,3.90
2017-12-17T02:12:53.091Z,3.60
2017-12-17T02:15:21.221Z,3.50
2017-12-17T02:17:50.260Z,3.70
2017-12-17T02:20:18.386Z,3.50
2017-12-17T02:22:46.522Z,3.70
2017-12-17T02:25:15.430Z,3.60
2017-12-17T02:27:44.350Z,3.70
2017-12-17T02:30:13.255Z,3.70
2017-12-17T02:32:42.135Z,3.50
2017-12-17T02:35:11.033Z,3.60
2017-12-17T02:37:39.953Z,3.60
2017-12-17T02:40:08.884Z,3.60
2017-12-17T02:42:38.383Z,3.70
2017-12-17T02:45:06.572Z,3.70
2017-12-17T02:47:34.706Z,3.70
2017-12-17T02:50:02.912Z,3.80
2017-12-17T02:52:31.845Z,3.90
2017-12-17T02:55:00.000Z,3.90
2017-12-17T02:57:28.699Z,3.80
2017-12-17T02:59:56.849Z,4.00
2017-12-17T03:02:24.978Z,4.10
2017-12-17T03:04:53.865Z,4.00
2017-12-17T03:07:22.014Z,4.00
2017-12-17T03:09:50.157Z,4.10
2017-12-17T03:12:18.314Z,4.10
2017-12-17T03:14:46.449Z,4.20
2017-12-17T03:17:14.602Z,4.20
2017-12-17T03:19:42.745Z,4.00
2017-12-17T03:22:10.949Z,4.00
2017-12-17T03:24:39.093Z,4.00
2017-12-17T03:27:07.234Z,4.00
2017-12-17T03:29:35.387Z,3.90
2017-12-17T03:32:03.552Z,3.80
2017-12-17T03:34:32.677Z,3.90
2017-12-17T03:37:00.820Z,4.10
2017-12-17T03:39:28.930Z,4.00
2017-12-17T03:41:57.081Z,4.10
2017-12-17T03:44:25.228Z,4.00
2017-12-17T03:46:53.344Z,4.00
2017-12-17T03:49:21.497Z,3.90
2017-12-17T03:51:50.338Z,3.90
2017-12-17T03:54:18.496Z,3.90
2017-12-17T03:56:46.633Z,4.10
2017-12-17T03:59:15.562Z,3.80
2017-12-17T04:01:43.697Z,3.80
2017-12-17T04:04:11.817Z,3.80
2017-12-17T04:06:39.978Z,3.70
2017-12-17T04:09:08.110Z,3.90
2017-12-17T04:11:36.253Z,3.70
2017-12-17T04:14:05.152Z,3.70
2017-12-17T04:16:33.301Z,3.70
2017-12-17T04:19:01.425Z,3.80
2017-12-17T04:21:30.167Z,3.90
2017-12-17T04:23:58.296Z,3.90
2017-12-17T04:26:26.448Z,4.00
2017-12-17T04:28:54.580Z,4.00
2017-12-17T04:31:22.726Z,4.00
2017-12-17T04:33:50.862Z,3.80
2017-12-17T04:36:19.772Z,3.80
2017-12-17T04:38:48.675Z,3.90
2017-12-17T04:41:17.580Z,3.90
2017-12-17T04:43:46.474Z,3.80
2017-12-17T04:46:15.417Z,3.90
2017-12-17T04:48:43.541Z,3.90
2017-12-17T04:51:12.437Z,3.80
2017-12-17T04:53:40.577Z,3.80
2017-12-17T04:56:09.946Z,3.60
2017-12-17T04:58:38.097Z,3.80
2017-12-17T05:01:06.239Z,3.70
2017-12-17T05:03:34.376Z,3.80
2017-12-17T05:06:02.513Z,3.60
2017-12-17T05:08:30.708Z,3.80
2017-12-17T05:11:00.196Z,3.80
2017-12-17T05:13:28.669Z,3.80
2017-12-17T05:15:56.787Z,3.70
2017-12-17T05:18:24.940Z,3.80
2017-12-17T05:20:53.089Z,3.90
2017-12-17T05:23:21.989Z,4.10
2017-12-17T05:25:50.117Z,3.90
2017-12-17T05:28:18.272Z,4.00
2017-12-17T05:30:46.424Z,3.90
2017-12-17T05:33:14.562Z,3.90
2017-12-17T05:35:42.730Z,4.00
2017-12-17T05:38:10.856Z,4.00
2017-12-17T05:40:39.009Z,3.90
2017-12-17T05:43:07.148Z,3.90
2017-12-17T05:45:35.317Z,3.90
2017-12-17T05:48:03.459Z,3.80
2017-12-17T05:50:31.597Z,3.60
2017-12-17T05:52:59.745Z,3.60
2017-12-17T05:55:27.885Z,3.70
2017-12-17T05:57:56.949Z,3.70
2017-12-17T06:00:25.093Z,3.70
2017-12-17T06:02:53.986Z,3.70
2017-12-17T06:05:23.562Z,3.70
2017-12-17T06:07:51.684Z,3.70
2017-12-17T06:10:19.830Z,3.60
2017-12-17T06:12:47.981Z,3.60
2017-12-17T06:15:16.115Z,3.70
2017-12-17T06:17:45.006Z,3.50
2017-12-17T06:20:13.149Z,3.50
2017-12-17T06:22:42.056Z,3.50
2017-12-17T06:25:10.187Z,3.50
2017-12-17T06:27:38.352Z,3.40
2017-12-17T06:30:06.482Z,3.60
2017-12-17T06:32:34.623Z,3.70
2017-12-17T06:35:02.767Z,3.60
2017-12-17T06:37:31.682Z,3.30
2017-12-17T06:40:00.572Z,3.30
2017-12-17T06:42:29.474Z,3.40
2017-12-17T06:44:57.645Z,3.40
2017-12-17T06:47:25.777Z,3.40
2017-12-17T06:49:53.929Z,3.50
2017-12-17T06:52:22.055Z,3.50
2017-12-17T06:54:50.205Z,3.50
2017-12-17T06:57:18.365Z,3.50
2017-12-17T06:59:46.498Z,3.30
2017-12-17T07:02:14.649Z,3.10
2017-12-17T07:04:43.549Z,3.20
2017-12-17T07:07:11.706Z,3.20
2017-12-17T07:09:39.858Z,3.10
2017-12-17T07:12:08.772Z,3.20
2017-12-17T07:14:36.921Z,3.20
2017-12-17T07:17:06.557Z,3.00
2017-12-17T07:19:34.729Z,3.00
2017-12-17T07:22:02.886Z,3.00
2017-12-17T07:24:31.784Z,3.20
2017-12-17T07:26:59.943Z,3.20
2017-12-17T07:29:28.073Z,3.20
2017-12-17T07:31:56.214Z,3.10
2017-12-17T07:34:24.360Z,3.20
2017-12-17T07:36:53.543Z,3.00
2017-12-17T07:39:22.089Z,3.10
2017-12-17T07:41:50.985Z,3.10
2017-12-17T07:44:19.886Z,3.10
2017-12-17T07:46:48.014Z,3.10
2017-12-17T07:49:16.161Z,3.20
2017-12-17T07:51:45.088Z,3.10
2017-12-17T07:54:13.221Z,3.10
2017-12-17T07:56:41.377Z,3.20
2017-12-17T07:59:09.514Z,3.30
2017-12-17T08:01:37.669Z,3.30
2017-12-17T08:04:06.617Z,3.20
2017-12-17T08:06:35.520Z,3.30
2017-12-17T08:09:04.409Z,3.30
2017-12-17T08:11:32.542Z,3.30
2017-12-17T08:14:00.689Z,3.30
2017-12-17T08:16:29.611Z,3.20
2017-12-17T08:18:58.548Z,3.20
2017-12-17T08:21:27.457Z,3.00
2017-12-17T08:23:55.607Z,3.00
2017-12-17T08:26:24.498Z,3.20
2017-12-17T08:28:52.632Z,3.20
2017-12-17T08:31:20.763Z,2.90
2017-12-17T08:33:48.941Z,3.10
2017-12-17T08:36:17.057Z,3.10
2017-12-17T08:38:45.202Z,3.10
2017-12-17T08:41:13.349Z,3.10
2017-12-17T08:43:41.499Z,3.10
2017-12-17T08:46:10.394Z,3.20
2017-12-17T08:48:39.313Z,3.10
2017-12-17T08:51:08.225Z,3.10
2017-12-17T08:53:37.131Z,3.00
2017-12-17T08:56:05.264Z,2.90
2017-12-17T08:58:33.416Z,3.00
2017-12-17T09:01:01.586Z,3.20
2017-12-17T09:03:30.496Z,3.20
2017-12-17T09:05:59.402Z,2.90
2017-12-17T09:08:27.532Z,2.90
2017-12-17T09:10:55.688Z,2.90
2017-12-17T09:13:23.832Z,2.90
2017-12-17T09:15:51.973Z,3.10
2017-12-17T09:18:20.878Z,3.10
2017-12-17T09:20:49.021Z,3.10
2017-12-17T09:23:17.165Z,3.30
2017-12-17T09:25:45.313Z,3.30
2017-12-17T09:28:13.472Z,3.20
2017-12-17T09:30:43.215Z,3.20
2017-12-17T09:33:11.382Z,3.10
2017-12-17T09:35:40.313Z,3.30
2017-12-17T09:38:08.517Z,3.30
2017-12-17T09:40:36.673Z,3.50
2017-12-17T09:43:06.625Z,3.50
2017-12-17T09:45:34.791Z,3.50
2017-12-17T09:48:03.717Z,3.60
2017-12-17T09:50:31.842Z,3.60
2017-12-17T09:52:59.995Z,3.60
2017-12-17T09:55:28.143Z,3.50
2017-12-17T09:57:57.068Z,3.30
2017-12-17T10:00:26.026Z,3.30
2017-12-17T10:02:54.181Z,3.30
2017-12-17T10:05:22.325Z,3.20
2017-12-17T10:07:51.256Z,3.10
2017-12-17T10:10:19.394Z,3.10
2017-12-17T10:12:48.325Z,3.40
2017-12-17T10:15:16.463Z,3.40
2017-12-17T10:17:44.661Z,3.30
2017-12-17T10:20:12.791Z,3.40
2017-12-17T10:22:40.924Z,3.40
2017-12-17T10:25:09.097Z,3.40
2017-12-17T10:27:37.266Z,3.20
2017-12-17T10:30:05.411Z,3.20
2017-12-17T10:32:34.344Z,3.50
2017-12-17T10:35:02.533Z,3.50
2017-12-17T10:37:30.882Z,3.70
2017-12-17T10:39:59.874Z,3.90
2017-12-17T10:42:28.007Z,3.90
2017-12-17T10:44:56.158Z,3.80
2017-12-17T10:47:24.328Z,3.60
2017-12-17T10:49:52.483Z,3.70
2017-12-17T10:52:20.675Z,3.80
2017-12-17T10:54:48.837Z,3.70
2017-12-17T10:57:16.994Z,3.80
2017-12-17T10:59:45.114Z,3.80
2017-12-17T11:02:13.626Z,3.90
2017-12-17T11:04:41.748Z,3.90
2017-12-17T11:07:09.918Z,3.80
2017-12-17T11:09:38.052Z,3.80
2017-12-17T11:12:06.717Z,3.80
2017-12-17T11:14:34.861Z,3.80
2017-12-17T11:17:03.022Z,3.90
2017-12-17T11:19:31.178Z,3.80
2017-12-17T11:21:59.301Z,3.70
2017-12-17T11:24:27.473Z,3.80
2017-12-17T11:26:56.385Z,4.00
2017-12-17T11:29:25.308Z,4.00
2017-12-17T11:31:53.448Z,4.00
2017-12-17T11:34:23.137Z,4.00
2017-12-17T11:36:51.329Z,4.00
2017-12-17T11:39:20.359Z,3.90
2017-12-17T11:41:50.222Z,4.10
2017-12-17T11:44:18.404Z,4.10
2017-12-17T11:46:47.302Z,3.90
2017-12-17T11:49:16.243Z,3.70
2017-12-17T11:51:44.974Z,3.70
2017-12-17T11:54:13.153Z,3.70
2017-12-17T11:56:42.151Z,3.90
2017-12-17T11:59:10.352Z,4.00
2017-12-17T12:01:38.525Z,3.90
2017-12-17T12:04:06.667Z,4.00
2017-12-17T12:06:35.588Z,4.10
2017-12-17T12:09:03.725Z,4.10
2017-12-17T12:11:32.657Z,4.10
2017-12-17T12:14:00.816Z,3.90
2017-12-17T12:16:30.131Z,4.10
2017-12-17T12:18:59.755Z,3.80
2017-12-17T12:21:28.592Z,3.80
2017-12-17T12:23:57.922Z,3.80
2017-12-17T12:26:26.060Z,3.90
2017-12-17T12:28:54.979Z,4.00
2017-12-17T12:31:23.955Z,4.00
2017-12-17T12:33:52.563Z,4.00
2017-12-17T12:36:20.701Z,4.00
2017-12-17T12:38:48.868Z,4.20
2017-12-17T12:41:18.403Z,4.20
2017-12-17T12:43:47.200Z,4.20
2017-12-17T12:46:15.360Z,4.10
2017-12-17T12:48:44.257Z,4.20
2017-12-17T12:51:14.135Z,4.30
2017-12-17T12:53:42.287Z,4.30
2017-12-17T12:56:10.481Z,4.40
2017-12-17T12:58:38.656Z,4.30
2017-12-17T13:01:07.582Z,4.20
2017-12-17T13:03:36.470Z,4.40
2017-12-17T13:06:04.632Z,4.40
2017-12-17T13:08:32.779Z,4.50
2017-12-17T13:11:00.939Z,4.40
2017-12-17T13:13:29.695Z,4.50
2017-12-17T13:15:58.368Z,4.30
2017-12-17T13:18:27.383Z,4.50
2017-12-17T13:20:56.266Z,4.40
2017-12-17T13:23:24.445Z,4.40
2017-12-17T13:25:52.604Z,4.40
2017-12-17T13:28:21.508Z,4.50
2017-12-17T13:30:49.662Z,4.50
2017-12-17T13:33:17.803Z,4.50
2017-12-17T13:35:45.968Z,4.50
2017-12-17T13:38:14.132Z,4.60
2017-12-17T13:40:43.067Z,4.70
2017-12-17T13:43:11.253Z,4.70
2017-12-17T13:45:39.394Z,4.80
2017-12-17T13:48:07.539Z,4.80
2017-12-17T13:50:36.852Z,4.80
2017-12-17T13:53:05.013Z,4.80
2017-12-17T13:55:33.932Z,4.80
2017-12-17T13:58:02.080Z,4.80
2017-12-17T14:00:30.243Z,4.70
2017-12-17T14:02:58.399Z,4.70
2017-12-17T14:05:27.306Z,4.60
2017-12-17T14:07:55.805Z,4.50
2017-12-17T14:10:23.939Z,4.50
2017-12-17T14:12:52.844Z,4.60
2017-12-17T14:15:23.879Z,4.50
2017-12-17T14:17:52.014Z,4.50
2017-12-17T14:20:21.141Z,4.50
2017-12-17T14:22:49.293Z,4.50
2017-12-17T14:25:19.194Z,4.50
2017-12-17T14:27:47.325Z,4.50
2017-12-17T14:30:15.489Z,4.50
2017-12-17T14:32:44.382Z,4.40
2017-12-17T14:35:13.060Z,4.40
2017-12-17T14:37:41.197Z,4.40
2017-12-17T14:40:09.826Z,4.40
2017-12-17T14:42:37.980Z,4.40
2017-12-17T14:45:06.233Z,4.30
2017-12-17T14:47:35.141Z,4.30
2017-12-17T14:50:04.829Z,4.20
2017-12-17T14:52:33.720Z,4.20
2017-12-17T14:55:01.911Z,4.20
2017-12-17T14:57:30.084Z,4.20
2017-12-17T14:59:58.237Z,4.10
2017-12-17T15:02:26.376Z,3.80
2017-12-17T15:04:57.059Z,3.90
2017-12-17T15:07:26.340Z,3.90
2017-12-17T15:09:54.520Z,4.00
2017-12-17T15:12:22.755Z,4.00
2017-12-17T15:14:51.695Z,4.20
2017-12-17T15:17:20.914Z,4.10
2017-12-17T15:19:50.234Z,4.10
2017-12-17T15:22:18.413Z,4.20
2017-12-17T15:24:47.336Z,4.10
2017-12-17T15:27:16.115Z,4.10
2017-12-17T15:29:44.261Z,4.10
2017-12-17T15:32:13.176Z,4.00
2017-12-17T15:34:41.316Z,4.00
2017-12-17T15:37:09.480Z,3.90
2017-12-17T15:39:38.224Z,3.80
2017-12-17T15:42:06.425Z,3.80
2017-12-17T15:44:35.318Z,3.80
2017-12-17T15:47:04.241Z,3.90
2017-12-17T15:49:32.389Z,3.90
2017-12-17T15:52:00.530Z,3.90
2017-12-17T15:54:28.682Z,3.90
2017-12-17T15:56:57.580Z,4.00
2017-12-17T15:59:26.508Z,3.90
2017-12-17T16:01:54.669Z,3.90
2017-12-17T16:04:22.827Z,4.00
2017-12-17T16:06:51.007Z,4.00
2017-12-17T16:09:19.133Z,4.00
2017-12-17T16:11:48.940Z,4.10
2017-12-17T16:14:17.093Z,4.10
2017-12-17T16:16:45.270Z,3.90
2017-12-17T16:19:13.437Z,3.80
2017-12-17T16:21:41.590Z,3.80
2017-12-17T16:24:09.727Z,3.90
2017-12-17T16:26:37.901Z,3.80
2017-12-17T16:29:06.045Z,3.60
2017-12-17T16:31:34.225Z,3.60
2017-12-17T16:34:03.910Z,3.80
2017-12-17T16:36:32.058Z,3.80
2017-12-17T16:39:00.991Z,3.90
2017-12-17T16:41:29.108Z,3.90
2017-12-17T16:43:57.258Z,3.80
2017-12-17T16:46:25.417Z,3.90
2017-12-17T16:48:54.333Z,3.70
2017-12-17T16:51:22.510Z,3.70
2017-12-17T16:53:52.732Z,3.70
2017-12-17T16:56:20.886Z,3.70
2017-12-17T16:58:49.805Z,3.70
2017-12-17T17:01:17.950Z,3.70
2017-12-17T17:03:46.099Z,3.90
2017-12-17T17:06:15.038Z,3.80
2017-12-17T17:08:43.219Z,3.80
2017-12-17T17:11:12.098Z,3.70
2017-12-17T17:13:41.023Z,3.60
2017-12-17T17:16:09.935Z,3.70
2017-12-17T17:18:38.085Z,3.60
2017-12-17T17:21:07.991Z,3.70
2017-12-17T17:23:36.142Z,3.70
2017-12-17T17:26:04.286Z,3.80
2017-12-17T17:28:32.450Z,3.80
2017-12-17T17:31:01.578Z,3.80
2017-12-17T17:33:30.522Z,3.70
2017-12-17T17:35:59.471Z,3.70
2017-12-17T17:38:27.634Z,3.70
2017-12-17T17:40:55.791Z,3.90
2017-12-17T17:43:24.716Z,3.60
2017-12-17T17:45:52.846Z,3.60
2017-12-17T17:48:21.782Z,3.40
2017-12-17T17:50:50.718Z,3.50
2017-12-17T17:53:18.879Z,3.50
2017-12-17T17:55:47.035Z,3.40
2017-12-17T17:58:16.013Z,3.60
2017-12-17T18:00:44.150Z,3.50
2017-12-17T18:03:12.317Z,3.50
2017-12-17T18:05:42.110Z,3.50
2017-12-17T18:08:10.258Z,3.50
2017-12-17T18:10:39.362Z,3.40
2017-12-17T18:13:08.579Z,3.40
2017-12-17T18:15:37.497Z,3.50
2017-12-17T18:18:05.659Z,3.50
2017-12-17T18:20:34.558Z,3.30
2017-12-17T18:23:02.717Z,3.30
2017-12-17T18:25:30.877Z,3.50
2017-12-17T18:27:59.003Z,3.60
2017-12-17T18:30:27.950Z,3.60
2017-12-17T18:32:56.755Z,3.60
2017-12-17T18:35:24.913Z,3.60
2017-12-17T18:37:53.351Z,3.50
2017-12-17T18:40:21.473Z,3.50
2017-12-17T18:42:50.423Z,3.50
2017-12-17T18:45:18.587Z,3.50
2017-12-17T18:47:46.746Z,3.60
2017-12-17T18:50:15.676Z,3.70
2017-12-17T18:52:43.848Z,3.70
2017-12-17T18:55:12.777Z,3.90
2017-12-17T18:57:40.966Z,3.90
2017-12-17T19:00:09.150Z,3.90
2017-12-17T19:02:37.311Z,3.80
2017-12-17T19:05:06.261Z,3.90
2017-12-17T19:07:34.406Z,3.90
2017-12-17T19:10:03.332Z,3.80
2017-12-17T19:12:32.267Z,3.80
2017-12-17T19:15:00.414Z,3.80
2017-12-17T19:17:28.595Z,3.70
2017-12-17T19:19:56.766Z,3.70
2017-12-17T19:22:25.558Z,3.70
2017-12-17T19:24:53.726Z,3.80
2017-12-17T19:27:21.887Z,3.90
2017-12-17T19:29:50.112Z,3.90
2017-12-17T19:32:18.297Z,3.90
2017-12-17T19:34:46.486Z,3.90
2017-12-17T19:37:14.661Z,3.80
2017-12-17T19:39:42.803Z,3.80
2017-12-17T19:42:10.984Z,3.80
2017-12-17T19:44:39.160Z,3.80
2017-12-17T19:47:08.560Z,3.80
2017-12-17T19:49:36.696Z,3.70
2017-12-17T19:52:04.883Z,3.70
2017-12-17T19:54:33.126Z,3.70
2017-12-17T19:57:02.064Z,3.60
2017-12-17T19:59:30.237Z,3.60
2017-12-17T20:01:59.171Z,3.50
2017-12-17T20:04:27.376Z,3.50
2017-12-17T20:06:55.520Z,3.60
2017-12-17T20:09:23.711Z,3.70
2017-12-17T20:11:51.869Z,3.70
2017-12-17T20:14:20.840Z,3.70
2017-12-17T20:16:49.006Z,3.70
2017-12-17T20:19:17.187Z,3.70
2017-12-17T20:21:45.365Z,3.60
2017-12-17T20:24:13.533Z,3.70
2017-12-17T20:26:41.691Z,3.70
2017-12-17T20:29:09.851Z,3.60
2017-12-17T20:31:38.010Z,3.60
2017-12-17T20:34:06.178Z,3.60
2017-12-17T20:36:34.402Z,3.60
2017-12-17T20:39:02.559Z,3.60
2017-12-17T20:41:30.715Z,3.60
2017-12-17T20:43:59.879Z,3.60
2017-12-17T20:46:28.784Z,3.50
2017-12-17T20:48:57.527Z,3.50
2017-12-17T20:51:26.458Z,3.50
2017-12-17T20:53:54.613Z,3.50
2017-12-17T20:56:24.859Z,3.50
2017-12-17T20:58:53.793Z,3.50
2017-12-17T21:01:22.770Z,3.50
2017-12-17T21:03:51.684Z,3.50
2017-12-17T21:06:19.870Z,3.50
2017-12-17T21:08:48.033Z,3.50
2017-12-17T21:11:16.998Z,3.40
2017-12-17T21:13:45.140Z,3.30
2017-12-17T21:16:14.055Z,3.50
2017-12-17T21:18:42.220Z,3.50
2017-12-17T21:21:10.351Z,3.50
2017-12-17T21:23:39.783Z,3.50
2017-12-17T21:26:08.732Z,3.50
2017-12-17T21:28:38.186Z,3.60
2017-12-17T21:31:06.368Z,3.60
2017-12-17T21:33:34.508Z,3.60
2017-12-17T21:36:03.558Z,3.60
2017-12-17T21:38:31.727Z,3.60
2017-12-17T21:41:00.661Z,3.40
2017-12-17T21:43:28.817Z,3.30
2017-12-17T21:45:56.983Z,3.50
2017-12-17T21:48:25.138Z,3.50
2017-12-17T21:50:54.091Z,3.40
2017-12-17T21:53:22.981Z,3.40
2017-12-17T21:55:51.907Z,3.50
2017-12-17T21:58:20.079Z,3.40
2017-12-17T22:00:48.218Z,3.50
2017-12-17T22:03:16.372Z,3.30
2017-12-17T22:05:44.524Z,3.30
2017-12-17T22:08:13.436Z,3.10
2017-12-17T22:10:42.359Z,2.90
2017-12-17T22:13:11.863Z,3.00
2017-12-17T22:15:40.770Z,3.10
2017-12-17T22:18:08.907Z,3.00
2017-12-17T22:20:37.051Z,3.30
2017-12-17T22:23:05.231Z,3.10
2017-12-17T22:25:34.144Z,3.30
2017-12-17T22:28:02.290Z,3.30
2017-12-17T22:30:30.638Z,3.30
2017-12-17T22:32:58.805Z,3.40
2017-12-17T22:35:27.683Z,3.30
2017-12-17T22:37:56.612Z,3.50
2017-12-17T22:40:25.553Z,3.50
2017-12-17T22:42:53.693Z,3.40
2017-12-17T22:45:22.600Z,3.50
2017-12-17T22:47:51.516Z,3.50
2017-12-17T22:50:19.670Z,3.50
2017-12-17T22:52:47.828Z,3.50
2017-12-17T22:55:15.978Z,3.40
2017-12-17T22:57:44.117Z,3.50
2017-12-17T23:00:12.268Z,3.60
2017-12-17T23:02:40.413Z,3.50
2017-12-17T23:05:09.341Z,3.50
2017-12-17T23:07:37.501Z,3.50
2017-12-17T23:10:06.409Z,3.50
2017-12-17T23:12:34.566Z,3.50
2017-12-17T23:15:02.698Z,3.50
2017-12-17T23:17:31.764Z,3.50
2017-12-17T23:19:59.909Z,3.50
2017-12-17T23:22:28.067Z,3.60
2017-12-17T23:24:56.211Z,3.50
2017-12-17T23:27:24.356Z,3.40
2017-12-17T23:29:52.488Z,3.40
2017-12-17T23:32:21.384Z,3.40
2017-12-17T23:34:49.534Z,3.40
2017-12-17T23:37:17.678Z,3.40
2017-12-17T23:39:46.593Z,3.30
2017-12-17T23:42:16.208Z,3.40
2017-12-17T23:44:45.124Z,3.40
2017-12-17T23:47:14.014Z,3.40
2017-12-17T23:49:42.920Z,3.40
2017-12-17T23:52:11.834Z,3.40
2017-12-17T23:54:41.381Z,3.40
2017-12-17T23:57:09.508Z,3.40
2017-12-17T23:59:37.653Z,3.30
